»·PEaware :: AAL258 KSNA-KLAS

AAL258 :: KSNA-KLAS

FLIGHT INFORMATION

Flight Status: Arrived
Operator:
American Airlines
More flights by this operator :: More flights under this callsign
Pilot: Brad M. (22842)
Aircraft: AIRBUS A321
(A321)
More flights by this aircraft type
Origin: KSNA John Wayne-Orange Co
United States
Destination: KLAS McCarran Intl
United States
More flights between these airports :: More routes between these airports
Route: +FINZZ3 MISEN KEPEC6
File this flight plan on PilotEdge
Remarks:
Altitude:
(Current/Filed)
31,000ft
Speed:
(Current/Filed)
462kts
Departed: 10-Nov-20 03:40 PM
Arrived: 10-Nov-20 04:23 PM
Distance/Time
Traveled:
197nm/0:43
Distance/Time
To Go:
Arrived

Flight Plot

Page will automatically refresh every two minutes.

Flight plan parsing failed; only flown route is shown


Map Options




Map Legend


Flown Route
Filed Route
Departure Airport
Arrival Airport
Navaid (VOR, NDB)
Fix

Horizontal Profiles

Position Reports

Time Latitude Longitude Heading Altitude Ground
Speed
10-Nov-20 14:55 33.677899 -117.863229 119 70ft 0kts
10-Nov-20 14:56 33.677899 -117.863229 119 70ft 0kts
10-Nov-20 14:57 33.677899 -117.863229 119 70ft 0kts
10-Nov-20 14:58 33.677899 -117.863229 119 70ft 0kts
10-Nov-20 14:59 33.677899 -117.863229 119 70ft 0kts
10-Nov-20 15:00 33.677899 -117.863229 119 70ft 0kts
10-Nov-20 15:01 33.677899 -117.863229 119 70ft 0kts
10-Nov-20 15:01 33.677899 -117.863229 119 70ft 0kts
10-Nov-20 15:03 33.677899 -117.863229 119 70ft 0kts
10-Nov-20 15:03 33.677899 -117.863229 119 70ft 0kts
10-Nov-20 15:04 33.677899 -117.863229 119 70ft 0kts
10-Nov-20 15:05 33.677899 -117.863229 119 70ft 0kts
10-Nov-20 15:06 33.677899 -117.863229 119 70ft 0kts
10-Nov-20 15:07 33.677899 -117.863229 119 70ft 0kts
10-Nov-20 15:08 33.677899 -117.863229 119 70ft 0kts
10-Nov-20 15:09 33.677899 -117.863229 119 70ft 0kts
10-Nov-20 15:10 33.677899 -117.863229 119 70ft 0kts
10-Nov-20 15:11 33.677899 -117.863229 119 70ft 0kts
10-Nov-20 15:12 33.677899 -117.863229 119 70ft 0kts
10-Nov-20 15:13 33.677899 -117.863229 119 70ft 0kts
10-Nov-20 15:14 33.677899 -117.863229 119 70ft 0kts
10-Nov-20 15:15 33.677899 -117.863229 119 70ft 0kts
10-Nov-20 15:16 33.677899 -117.863229 119 70ft 0kts
10-Nov-20 15:17 33.677899 -117.863229 119 70ft 0kts
10-Nov-20 15:18 33.677899 -117.863229 119 70ft 0kts
10-Nov-20 15:19 33.677899 -117.863229 119 70ft 0kts
10-Nov-20 15:20 33.677899 -117.863229 119 70ft 0kts
10-Nov-20 15:21 33.677899 -117.863229 119 70ft 0kts
10-Nov-20 15:22 33.677899 -117.863229 119 70ft 0kts
10-Nov-20 15:23 33.677899 -117.863229 119 70ft 0kts
10-Nov-20 15:24 33.677899 -117.863229 119 70ft 0kts
10-Nov-20 15:25 33.677899 -117.863229 119 70ft 0kts
10-Nov-20 15:26 33.677899 -117.863229 119 70ft 0kts
10-Nov-20 15:27 33.677899 -117.863229 119 70ft 0kts
10-Nov-20 15:28 33.677899 -117.863229 119 70ft 0kts
10-Nov-20 15:29 33.677950 -117.863338 116 70ft 2kts
10-Nov-20 15:30 33.677953 -117.864065 28 70ft 0kts
10-Nov-20 15:31 33.677954 -117.864065 28 70ft 0kts
10-Nov-20 15:32 33.677954 -117.864064 28 70ft 0kts
10-Nov-20 15:33 33.677996 -117.864037 28 70ft 0kts
10-Nov-20 15:34 33.679708 -117.862952 28 70ft 7kts
10-Nov-20 15:35 33.680522 -117.862868 300 70ft 6kts
10-Nov-20 15:36 33.680613 -117.863058 299 70ft 0kts
10-Nov-20 15:37 33.680884 -117.863648 298 70ft 9kts
10-Nov-20 15:38 33.681344 -117.865255 210 70ft 0kts
10-Nov-20 15:39 33.667568 -117.873901 209 470ft 137kts
10-Nov-20 15:40 33.630274 -117.891201 185 2526ft 160kts
10-Nov-20 15:41 33.578703 -117.898626 189 4182ft 206kts
10-Nov-20 15:42 33.532069 -117.944762 221 6330ft 236kts
10-Nov-20 15:43 33.497048 -118.017497 286 8234ft 283kts
10-Nov-20 15:44 33.548851 -118.088379 320 10926ft 297kts
10-Nov-20 15:45 33.635545 -118.105331 21 11776ft 374kts
10-Nov-20 15:46 33.730505 -118.046874 22 14049ft 390kts
10-Nov-20 15:47 33.829761 -117.989841 21 16219ft 403kts
10-Nov-20 15:48 33.930229 -117.924146 31 18207ft 421kts
10-Nov-20 15:49 34.024479 -117.836349 32 20000ft 433kts
10-Nov-20 15:50 34.117007 -117.738754 45 21403ft 458kts
10-Nov-20 15:51 34.197368 -117.616495 45 22819ft 469kts
10-Nov-20 15:52 34.280742 -117.493467 45 24317ft 473kts
10-Nov-20 15:53 34.363081 -117.370129 45 26017ft 469kts
10-Nov-20 15:54 34.444714 -117.247709 45 27151ft 465kts
10-Nov-20 15:55 34.525776 -117.125846 45 27171ft 464kts
10-Nov-20 15:56 34.608058 -117.005215 44 27168ft 462kts
10-Nov-20 15:57 34.690175 -116.885369 44 27138ft 461kts
10-Nov-20 15:58 34.772198 -116.765247 44 27181ft 462kts
10-Nov-20 15:59 34.855064 -116.645280 39 27219ft 458kts
10-Nov-20 16:00 34.953156 -116.549243 32 27177ft 452kts
10-Nov-20 16:01 35.051423 -116.453266 32 27132ft 453kts
10-Nov-20 16:02 35.145686 -116.351046 38 26271ft 457kts
10-Nov-20 16:03 35.241175 -116.248054 35 25289ft 459kts
10-Nov-20 16:04 35.336595 -116.143284 36 24302ft 463kts
10-Nov-20 16:05 35.432777 -116.038258 36 23310ft 461kts
10-Nov-20 16:06 35.527890 -115.933778 36 22318ft 456kts
10-Nov-20 16:07 35.621864 -115.830212 37 21276ft 449kts
10-Nov-20 16:08 35.713234 -115.729206 37 18579ft 436kts
10-Nov-20 16:09 35.801899 -115.630928 38 15705ft 421kts
10-Nov-20 16:10 35.885878 -115.537412 38 13021ft 381kts
10-Nov-20 16:11 35.961789 -115.452795 38 10995ft 339kts
10-Nov-20 16:12 36.022346 -115.383908 46 10981ft 267kts
10-Nov-20 16:13 36.024703 -115.293772 92 10090ft 272kts
10-Nov-20 16:14 36.018751 -115.197921 91 8275ft 286kts
10-Nov-20 16:15 36.014647 -115.101638 91 7009ft 267kts
10-Nov-20 16:16 36.011477 -115.012591 91 5990ft 243kts
10-Nov-20 16:17 36.024428 -114.939780 30 5663ft 216kts
10-Nov-20 16:18 36.074495 -114.951046 301 4922ft 202kts
10-Nov-20 16:19 36.073489 -115.013294 266 3869ft 160kts
10-Nov-20 16:20 36.073738 -115.065198 271 3083ft 149kts
10-Nov-20 16:21 36.073650 -115.117007 270 2365ft 150kts
10-Nov-20 16:22 36.073849 -115.148465 288 2195ft 24kts
10-Nov-20 16:23 36.076057 -115.151739 334 2195ft 13kts
10-Nov-20 16:24 36.078061 -115.151704 90 2195ft 5kts
10-Nov-20 16:25 36.077817 -115.147698 94 2195ft 17kts
10-Nov-20 16:26 36.077546 -115.141652 89 2195ft 19kts
10-Nov-20 16:27 36.078166 -115.137801 40 2195ft 6kts
10-Nov-20 16:28 36.079241 -115.136295 318 2195ft 8kts
10-Nov-20 16:29 36.080211 -115.136036 66 2195ft 0kts
10-Nov-20 16:30 36.080212 -115.136035 66 2195ft 0kts
10-Nov-20 16:31 36.080212 -115.136035 66 2195ft 0kts
10-Nov-20 16:32 36.080212 -115.136035 66 2195ft 0kts
10-Nov-20 16:33 36.080212 -115.136035 66 2195ft 0kts
10-Nov-20 16:34 36.080212 -115.136035 66 2195ft 0kts
10-Nov-20 16:35 36.080212 -115.136035 66 2195ft 0kts
10-Nov-20 16:36 36.080212 -115.136035 66 2195ft 0kts
10-Nov-20 16:37 36.080212 -115.136035 66 2195ft 0kts

Navigation Log

Ident Type
Flight plan parsing failed, navigation log unavailable